This is the latest recevied weather packets stored in our database for station/object HB9CEY-10. If no packets are shown the sender has not sent any weather packets the latest 1 day(s).
| Time | Temp. | Humidity | Pressure | Rain* | Wind** | Luminosity | Snow |
|---|---|---|---|---|---|---|---|
| 1778114660 | 8.89° C | 52% | 1013.8 hPa | - | - | - | - |
| 1778113760 | 8.89° C | 52% | 1013.7 hPa | - | - | - | - |
| 1778112860 | 8.89° C | 52% | 1013.6 hPa | - | - | - | - |
| 1778110160 | 9.44° C | 52% | 1013.5 hPa | - | - | - | - |
| 1778108360 | 9.44° C | 52% | 1013.7 hPa | - | - | - | - |
| 1778107460 | 9.44° C | 52% | 1013.7 hPa | - | - | - | - |
| 1778106560 | 9.44° C | 52% | 1013.6 hPa | - | - | - | - |
| 1778105660 | 9.44° C | 52% | 1013.5 hPa | - | - | - | - |
| 1778104760 | 9.44° C | 52% | 1013.5 hPa | - | - | - | - |
| 1778092159 | 11.11° C | 51% | 1011.8 hPa | - | - | - | - |
| 1778091259 | 11.11° C | 51% | 1011.7 hPa | - | - | - | - |
| 1778090359 | 11.67° C | 51% | 1011.7 hPa | - | - | - | - |
| 1778089459 | 11.67° C | 51% | 1011.6 hPa | - | - | - | - |
| 1778088559 | 11.67° C | 50% | 1011.4 hPa | - | - | - | - |
| 1778077758 | 12.22° C | 50% | 1010.9 hPa | - | - | - | - |
| 1778076858 | 12.22° C | 50% | 1010.9 hPa | - | - | - | - |
| 1778075958 | 11.67° C | 51% | 1010.8 hPa | - | - | - | - |
| 1778075058 | 11.67° C | 51% | 1010.8 hPa | - | - | - | - |
| 1778074158 | 11.67° C | 51% | 1010.9 hPa | - | - | - | - |
| 1778073258 | 11.67° C | 51% | 1010.6 hPa | - | - | - | - |
| 1778072358 | 11.67° C | 51% | 1010.8 hPa | - | - | - | - |
| 1778064257 | 12.22° C | 51% | 1009.7 hPa | - | - | - | - |
| 1778061557 | 12.22° C | 51% | 1009.4 hPa | - | - | - | - |
| 1778059757 | 12.22° C | 51% | 1009.2 hPa | - | - | - | - |
| 1778058857 | 12.78° C | 51% | 1009 hPa | - | - | - | - |
* Rain since midnight (hover to see other rain measurements)
** Current wind speed in m/s (hover to see current wind gust speed)